createdAt,value
2018-11-05T00:00:15.798Z,1013.02
2018-11-05T00:01:21.330Z,1013.02
2018-11-05T00:02:26.865Z,1012.98
2018-11-05T00:03:32.400Z,1013.01
2018-11-05T00:04:37.937Z,1012.99
2018-11-05T00:05:43.477Z,1012.98
2018-11-05T00:06:49.011Z,1013.00
2018-11-05T00:07:54.547Z,1013.00
2018-11-05T00:09:00.085Z,1013.01
2018-11-05T00:10:05.617Z,1012.99
2018-11-05T00:11:11.157Z,1013.03
2018-11-05T00:12:16.692Z,1013.04
2018-11-05T00:13:22.233Z,1013.04
2018-11-05T00:14:27.765Z,1013.02
2018-11-05T00:15:33.304Z,1013.03
2018-11-05T00:16:38.837Z,1013.01
2018-11-05T00:17:44.378Z,1013.01
2018-11-05T00:18:49.910Z,1012.98
2018-11-05T00:19:55.450Z,1012.95
2018-11-05T00:21:00.985Z,1012.96
2018-11-05T00:22:06.521Z,1012.95
2018-11-05T00:23:12.058Z,1012.95
2018-11-05T00:24:17.597Z,1012.96
2018-11-05T00:25:23.131Z,1012.91
2018-11-05T00:26:28.675Z,1012.85
2018-11-05T00:27:34.204Z,1012.87
2018-11-05T00:28:39.740Z,1012.86
2018-11-05T00:29:45.274Z,1012.87
2018-11-05T00:30:50.813Z,1012.90
2018-11-05T00:31:56.347Z,1012.86
2018-11-05T00:33:01.892Z,1012.86
2018-11-05T00:34:07.421Z,1012.89
2018-11-05T00:35:12.964Z,1012.88
2018-11-05T00:36:18.493Z,1012.87
2018-11-05T00:37:24.032Z,1012.89
2018-11-05T00:38:29.567Z,1012.87
2018-11-05T00:39:35.102Z,1012.86
2018-11-05T00:40:40.648Z,1012.82
2018-11-05T00:41:46.176Z,1012.80
2018-11-05T00:42:51.712Z,1012.82
2018-11-05T00:43:57.250Z,1012.82
2018-11-05T00:45:02.787Z,1012.78
2018-11-05T00:46:08.322Z,1012.81
2018-11-05T00:47:13.865Z,1012.80
2018-11-05T00:48:19.397Z,1012.80
2018-11-05T00:49:24.934Z,1012.82
2018-11-05T00:50:30.466Z,1012.77
2018-11-05T00:51:36.006Z,1012.79
2018-11-05T00:52:41.542Z,1012.77
2018-11-05T00:53:47.077Z,1012.75
2018-11-05T00:54:52.622Z,1012.72
2018-11-05T00:55:58.160Z,1012.65
2018-11-05T00:57:03.691Z,1012.65
2018-11-05T00:58:09.223Z,1012.63
2018-11-05T00:59:14.761Z,1012.63
2018-11-05T01:00:20.300Z,1012.64
2018-11-05T01:01:25.838Z,1012.60
2018-11-05T01:02:31.372Z,1012.64
2018-11-05T01:03:36.907Z,1012.65
2018-11-05T01:04:42.444Z,1012.63
2018-11-05T01:05:47.977Z,1012.61
2018-11-05T01:06:53.517Z,1012.60
2018-11-05T01:07:59.051Z,1012.59
2018-11-05T01:09:04.591Z,1012.55
2018-11-05T01:10:10.127Z,1012.59
2018-11-05T01:11:15.662Z,1012.59
2018-11-05T01:12:21.197Z,1012.58
2018-11-05T01:13:26.736Z,1012.56
2018-11-05T01:14:32.270Z,1012.59
2018-11-05T01:15:37.804Z,1012.54
2018-11-05T01:16:43.343Z,1012.53
2018-11-05T01:17:48.877Z,1012.57
2018-11-05T01:18:54.420Z,1012.55
2018-11-05T01:19:59.951Z,1012.59
2018-11-05T01:21:05.492Z,1012.56
2018-11-05T01:22:11.026Z,1012.58
2018-11-05T01:23:16.558Z,1012.53
2018-11-05T01:24:22.102Z,1012.53
2018-11-05T01:25:27.632Z,1012.54
2018-11-05T01:26:33.168Z,1012.50
2018-11-05T01:27:38.707Z,1012.51
2018-11-05T01:28:44.239Z,1012.54
2018-11-05T01:29:49.779Z,1012.49
2018-11-05T01:30:55.320Z,1012.44
2018-11-05T01:32:00.855Z,1012.44
2018-11-05T01:33:06.386Z,1012.39
2018-11-05T01:34:11.932Z,1012.42
2018-11-05T01:35:17.464Z,1012.40
2018-11-05T01:36:23.001Z,1012.38
2018-11-05T01:37:28.531Z,1012.37
2018-11-05T01:38:34.071Z,1012.38
2018-11-05T01:39:39.602Z,1012.34
2018-11-05T01:40:45.145Z,1012.32
2018-11-05T01:41:50.680Z,1012.28
2018-11-05T01:42:56.219Z,1012.21
2018-11-05T01:44:01.749Z,1012.24
2018-11-05T01:45:07.285Z,1012.19
2018-11-05T01:46:12.821Z,1012.18
2018-11-05T01:47:18.359Z,1012.19
2018-11-05T01:48:23.896Z,1012.15
2018-11-05T01:49:29.431Z,1012.17
2018-11-05T01:50:34.967Z,1012.21
2018-11-05T01:51:40.509Z,1012.21
2018-11-05T01:52:46.042Z,1012.23
2018-11-05T01:53:51.576Z,1012.24
2018-11-05T01:54:57.115Z,1012.25
2018-11-05T01:56:02.647Z,1012.27
2018-11-05T01:57:08.187Z,1012.23
2018-11-05T01:58:13.721Z,1012.22
2018-11-05T01:59:19.264Z,1012.19
2018-11-05T02:00:24.797Z,1012.15
2018-11-05T02:01:30.332Z,1012.11
2018-11-05T02:02:35.866Z,1012.08
2018-11-05T02:03:41.403Z,1012.09
2018-11-05T02:04:46.939Z,1012.08
2018-11-05T02:05:52.485Z,1012.02
2018-11-05T02:06:58.013Z,1012.09
2018-11-05T02:08:03.548Z,1012.05
2018-11-05T02:09:09.085Z,1012.05
2018-11-05T02:10:14.641Z,1011.98
2018-11-05T02:11:20.161Z,1011.93
2018-11-05T02:12:25.697Z,1011.87
2018-11-05T02:13:31.299Z,1011.90
2018-11-05T02:14:36.770Z,1011.89
2018-11-05T02:15:42.310Z,1011.89
2018-11-05T02:16:47.839Z,1011.89
2018-11-05T02:17:53.377Z,1011.93
2018-11-05T02:18:58.913Z,1011.89
2018-11-05T02:20:04.448Z,1011.93
2018-11-05T02:21:09.995Z,1011.91
2018-11-05T02:22:15.521Z,1011.91
2018-11-05T02:23:21.092Z,1011.89
2018-11-05T02:24:26.595Z,1011.92
2018-11-05T02:25:32.136Z,1011.95
2018-11-05T02:26:37.669Z,1011.97
2018-11-05T02:27:43.215Z,1011.93
2018-11-05T02:28:48.742Z,1011.98
2018-11-05T02:29:54.283Z,1012.00
2018-11-05T02:30:59.817Z,1011.98
2018-11-05T02:32:05.350Z,1012.00
2018-11-05T02:33:10.890Z,1012.00
2018-11-05T02:34:16.423Z,1012.06
2018-11-05T02:35:21.962Z,1012.02
2018-11-05T02:36:27.500Z,1011.96
2018-11-05T02:37:33.038Z,1012.02
2018-11-05T02:38:38.569Z,1011.94
2018-11-05T02:39:44.111Z,1011.97
2018-11-05T02:40:49.650Z,1011.97
2018-11-05T02:41:55.186Z,1011.95
2018-11-05T02:43:00.717Z,1011.92
2018-11-05T02:44:06.258Z,1011.92
2018-11-05T02:45:11.800Z,1011.94
2018-11-05T02:46:17.327Z,1011.89
2018-11-05T02:47:22.867Z,1011.92
2018-11-05T02:48:28.399Z,1011.90
2018-11-05T02:49:33.933Z,1011.87
2018-11-05T02:50:39.478Z,1011.88
2018-11-05T02:51:45.009Z,1011.85
2018-11-05T02:52:50.552Z,1011.83
2018-11-05T02:53:56.088Z,1011.85
2018-11-05T02:55:01.624Z,1011.87
2018-11-05T02:56:07.155Z,1011.86
2018-11-05T02:57:12.691Z,1011.83
2018-11-05T02:58:18.229Z,1011.81
2018-11-05T02:59:23.765Z,1011.75
2018-11-05T03:00:29.301Z,1011.72
2018-11-05T03:01:34.841Z,1011.74
2018-11-05T03:02:40.374Z,1011.74
2018-11-05T03:03:45.914Z,1011.76
2018-11-05T03:04:51.446Z,1011.75
2018-11-05T03:05:56.983Z,1011.80
2018-11-05T03:07:02.523Z,1011.75
2018-11-05T03:08:08.054Z,1011.67
2018-11-05T03:09:13.594Z,1011.70
2018-11-05T03:10:19.131Z,1011.72
2018-11-05T03:11:24.670Z,1011.67
2018-11-05T03:12:30.208Z,1011.67
2018-11-05T03:13:35.740Z,1011.68
2018-11-05T03:14:41.281Z,1011.66
2018-11-05T03:15:46.815Z,1011.70
2018-11-05T03:16:52.349Z,1011.74
2018-11-05T03:17:57.889Z,1011.71
2018-11-05T03:19:03.425Z,1011.68
2018-11-05T03:20:08.956Z,1011.67
2018-11-05T03:21:14.500Z,1011.66
2018-11-05T03:22:20.029Z,1011.58
2018-11-05T03:23:25.566Z,1011.57
2018-11-05T03:24:31.103Z,1011.52
2018-11-05T03:25:36.641Z,1011.52
2018-11-05T03:26:42.174Z,1011.54
2018-11-05T03:27:47.721Z,1011.53
2018-11-05T03:28:53.253Z,1011.56
2018-11-05T03:29:58.782Z,1011.54
2018-11-05T03:31:04.329Z,1011.51
2018-11-05T03:32:09.859Z,1011.56
2018-11-05T03:33:15.397Z,1011.58
2018-11-05T03:34:20.933Z,1011.62
2018-11-05T03:35:26.473Z,1011.58
2018-11-05T03:36:32.009Z,1011.61
2018-11-05T03:37:37.543Z,1011.51
2018-11-05T03:38:43.076Z,1011.54
2018-11-05T03:39:48.617Z,1011.51
2018-11-05T03:40:54.151Z,1011.51
2018-11-05T03:41:59.693Z,1011.56
2018-11-05T03:43:05.227Z,1011.61
2018-11-05T03:44:10.763Z,1011.59
2018-11-05T03:45:16.298Z,1011.60
2018-11-05T03:46:21.834Z,1011.56
2018-11-05T03:47:27.373Z,1011.56
2018-11-05T03:48:32.909Z,1011.53
2018-11-05T03:49:38.446Z,1011.53
2018-11-05T03:50:43.983Z,1011.57
2018-11-05T03:51:49.517Z,1011.58
2018-11-05T03:52:55.060Z,1011.56
2018-11-05T03:54:00.591Z,1011.60
2018-11-05T03:55:06.128Z,1011.62
2018-11-05T03:56:11.766Z,1011.67
2018-11-05T03:57:17.201Z,1011.64
2018-11-05T03:58:22.736Z,1011.60
2018-11-05T03:59:28.274Z,1011.56
2018-11-05T04:00:33.809Z,1011.45
2018-11-05T04:01:39.346Z,1011.41
2018-11-05T04:02:44.883Z,1011.35
2018-11-05T04:03:50.416Z,1011.39
2018-11-05T04:04:55.955Z,1011.38
2018-11-05T04:06:01.499Z,1011.44
2018-11-05T04:07:07.026Z,1011.37
2018-11-05T04:08:12.567Z,1011.37
2018-11-05T04:09:18.105Z,1011.33
2018-11-05T04:10:23.643Z,1011.33
2018-11-05T04:11:29.179Z,1011.32
2018-11-05T04:12:34.711Z,1011.28
2018-11-05T04:13:40.249Z,1011.26
2018-11-05T04:14:45.785Z,1011.26
2018-11-05T04:15:51.360Z,1011.24
2018-11-05T04:16:56.858Z,1011.27
2018-11-05T04:18:02.392Z,1011.26
2018-11-05T04:19:07.931Z,1011.26
2018-11-05T04:20:13.469Z,1011.24
2018-11-05T04:21:19.004Z,1011.26
2018-11-05T04:22:24.539Z,1011.23
2018-11-05T04:23:30.075Z,1011.24
2018-11-05T04:24:35.616Z,1011.24
2018-11-05T04:25:41.152Z,1011.21
2018-11-05T04:26:46.688Z,1011.21
2018-11-05T04:27:52.253Z,1011.19
2018-11-05T04:28:57.757Z,1011.17
2018-11-05T04:30:03.296Z,1011.18
2018-11-05T04:31:08.833Z,1011.16
2018-11-05T04:32:14.370Z,1011.12
2018-11-05T04:33:19.909Z,1011.09
2018-11-05T04:34:25.450Z,1011.08
2018-11-05T04:35:30.983Z,1011.13
2018-11-05T04:36:36.516Z,1011.17
2018-11-05T04:37:42.063Z,1011.18
2018-11-05T04:38:47.593Z,1011.27
2018-11-05T04:39:53.134Z,1011.26
2018-11-05T04:40:58.660Z,1011.29
2018-11-05T04:42:04.207Z,1011.29
2018-11-05T04:43:09.741Z,1011.29
2018-11-05T04:44:15.269Z,1011.23
2018-11-05T04:45:20.812Z,1011.23
2018-11-05T04:46:26.344Z,1011.28
2018-11-05T04:47:31.881Z,1011.32
2018-11-05T04:48:37.422Z,1011.28
2018-11-05T04:49:42.971Z,1011.29
2018-11-05T04:50:48.498Z,1011.28
2018-11-05T04:51:54.027Z,1011.27
2018-11-05T04:52:59.572Z,1011.26
2018-11-05T04:54:05.101Z,1011.23
2018-11-05T04:55:10.634Z,1011.22
2018-11-05T04:56:16.173Z,1011.20
2018-11-05T04:57:21.708Z,1011.16
2018-11-05T04:58:27.255Z,1011.15
2018-11-05T04:59:32.787Z,1011.17
2018-11-05T05:00:38.321Z,1011.13
2018-11-05T05:01:43.862Z,1011.15
2018-11-05T05:02:49.395Z,1011.13
2018-11-05T05:03:54.928Z,1011.11
2018-11-05T05:05:00.467Z,1011.07
2018-11-05T05:06:06.009Z,1011.10
2018-11-05T05:07:11.543Z,1011.05
2018-11-05T05:08:17.078Z,1011.07
2018-11-05T05:09:22.615Z,1011.07
2018-11-05T05:10:28.152Z,1011.06
2018-11-05T05:11:33.687Z,1011.03
2018-11-05T05:12:39.229Z,1011.02
2018-11-05T05:13:44.763Z,1011.06
2018-11-05T05:14:50.296Z,1011.07
2018-11-05T05:15:55.850Z,1011.09
2018-11-05T05:17:01.370Z,1011.02
2018-11-05T05:18:06.911Z,1011.03
2018-11-05T05:19:12.446Z,1011.01
2018-11-05T05:20:17.980Z,1011.01
2018-11-05T05:21:23.518Z,1011.03
2018-11-05T05:22:29.130Z,1011.03
2018-11-05T05:23:34.586Z,1011.03
2018-11-05T05:24:40.129Z,1011.03
2018-11-05T05:25:45.663Z,1011.03
2018-11-05T05:26:51.200Z,1011.04
2018-11-05T05:27:56.738Z,1010.96
2018-11-05T05:29:02.272Z,1010.95
2018-11-05T05:30:07.807Z,1010.95
2018-11-05T05:31:13.345Z,1010.99
2018-11-05T05:32:18.881Z,1010.97
2018-11-05T05:33:24.437Z,1010.96
2018-11-05T05:34:29.954Z,1010.92
2018-11-05T05:35:35.494Z,1010.94
2018-11-05T05:36:41.027Z,1010.90
2018-11-05T05:37:46.565Z,1010.91
2018-11-05T05:38:52.101Z,1010.89
2018-11-05T05:39:57.636Z,1010.90
2018-11-05T05:41:03.176Z,1010.93
2018-11-05T05:42:08.709Z,1010.93
2018-11-05T05:43:14.247Z,1010.99
2018-11-05T05:44:19.781Z,1010.97
2018-11-05T05:45:25.318Z,1011.00
2018-11-05T05:46:30.856Z,1011.01
2018-11-05T05:47:36.390Z,1010.96
2018-11-05T05:48:41.929Z,1010.99
2018-11-05T05:49:47.490Z,1011.01
2018-11-05T05:50:53.002Z,1011.00
2018-11-05T05:51:58.539Z,1010.97
2018-11-05T05:53:04.080Z,1010.98
2018-11-05T05:54:09.614Z,1010.97
2018-11-05T05:55:15.150Z,1011.03
2018-11-05T05:56:20.685Z,1011.01
2018-11-05T05:57:26.224Z,1011.08
2018-11-05T05:58:31.757Z,1011.01
2018-11-05T05:59:37.296Z,1011.05
2018-11-05T06:00:42.832Z,1011.04
2018-11-05T06:01:48.370Z,1011.01
2018-11-05T06:02:53.905Z,1010.99
2018-11-05T06:03:59.444Z,1010.99
2018-11-05T06:05:04.984Z,1011.00
2018-11-05T06:06:10.557Z,1010.96
2018-11-05T06:07:16.053Z,1010.97
2018-11-05T06:08:21.598Z,1010.94
2018-11-05T06:09:27.129Z,1010.98
2018-11-05T06:10:32.662Z,1010.96
2018-11-05T06:11:38.201Z,1010.99
2018-11-05T06:12:43.734Z,1010.99
2018-11-05T06:13:49.276Z,1010.96
2018-11-05T06:14:54.812Z,1010.95
2018-11-05T06:16:00.437Z,1010.95
2018-11-05T06:17:05.884Z,1010.97
2018-11-05T06:18:11.418Z,1010.92
2018-11-05T06:19:16.957Z,1010.97
2018-11-05T06:20:22.493Z,1011.02
2018-11-05T06:21:28.032Z,1011.02
2018-11-05T06:22:33.576Z,1011.00
2018-11-05T06:23:39.110Z,1011.01
2018-11-05T06:24:44.647Z,1010.99
2018-11-05T06:25:50.177Z,1010.98
2018-11-05T06:26:55.716Z,1011.01
2018-11-05T06:28:01.252Z,1010.98
2018-11-05T06:29:06.789Z,1010.96
2018-11-05T06:30:12.325Z,1010.98
2018-11-05T06:31:17.863Z,1010.98
2018-11-05T06:32:23.397Z,1010.98
2018-11-05T06:33:28.937Z,1011.01
2018-11-05T06:34:34.475Z,1011.02
2018-11-05T06:35:40.009Z,1011.05
2018-11-05T06:36:45.548Z,1011.05
2018-11-05T06:37:51.084Z,1011.07
2018-11-05T06:38:56.625Z,1011.09
2018-11-05T06:40:02.157Z,1011.08
2018-11-05T06:41:07.761Z,1011.05
2018-11-05T06:42:13.237Z,1011.04
2018-11-05T06:43:18.771Z,1011.08
2018-11-05T06:44:24.312Z,1011.14
2018-11-05T06:45:29.854Z,1011.14
2018-11-05T06:46:35.375Z,1011.16
2018-11-05T06:47:40.913Z,1011.20
2018-11-05T06:48:46.458Z,1011.17
2018-11-05T06:49:51.990Z,1011.23
2018-11-05T06:50:57.530Z,1011.22
2018-11-05T06:52:03.058Z,1011.24
2018-11-05T06:53:08.592Z,1011.21
2018-11-05T06:54:14.139Z,1011.23
2018-11-05T06:55:19.673Z,1011.24
2018-11-05T06:56:25.209Z,1011.24
2018-11-05T06:57:30.776Z,1011.26
2018-11-05T06:58:36.294Z,1011.27
2018-11-05T06:59:41.821Z,1011.28
2018-11-05T07:00:47.401Z,1011.27
2018-11-05T07:01:52.890Z,1011.23
2018-11-05T07:02:58.429Z,1011.22
2018-11-05T07:04:03.969Z,1011.16
2018-11-05T07:05:09.501Z,1011.14
2018-11-05T07:06:15.046Z,1011.16
2018-11-05T07:07:20.580Z,1011.13
2018-11-05T07:08:26.113Z,1011.09
2018-11-05T07:09:31.649Z,1011.10
2018-11-05T07:10:37.189Z,1011.12
2018-11-05T07:11:42.724Z,1011.10
2018-11-05T07:12:48.260Z,1011.14
2018-11-05T07:13:53.796Z,1011.16
2018-11-05T07:14:59.334Z,1011.14
2018-11-05T07:16:04.873Z,1011.19
2018-11-05T07:17:10.408Z,1011.16
2018-11-05T07:18:15.993Z,1011.17
2018-11-05T07:19:21.486Z,1011.10
2018-11-05T07:20:27.021Z,1011.12
2018-11-05T07:21:32.554Z,1011.12
2018-11-05T07:22:38.089Z,1011.11
2018-11-05T07:23:43.627Z,1011.16
2018-11-05T07:24:49.164Z,1011.14
2018-11-05T07:25:54.709Z,1011.13
2018-11-05T07:27:00.241Z,1011.16
2018-11-05T07:28:05.773Z,1011.15
2018-11-05T07:29:11.313Z,1011.16
2018-11-05T07:30:16.852Z,1011.17
2018-11-05T07:31:22.392Z,1011.15
2018-11-05T07:32:27.932Z,1011.16
2018-11-05T07:33:33.617Z,1011.16
2018-11-05T07:34:38.993Z,1011.13
2018-11-05T07:35:44.539Z,1011.18
2018-11-05T07:36:50.073Z,1011.17
2018-11-05T07:37:55.612Z,1011.15
2018-11-05T07:39:01.150Z,1011.16
2018-11-05T07:40:06.687Z,1011.14
2018-11-05T07:41:12.219Z,1011.16
2018-11-05T07:42:17.754Z,1011.17
2018-11-05T07:43:23.292Z,1011.18
2018-11-05T07:44:28.832Z,1011.21
2018-11-05T07:45:34.366Z,1011.27
2018-11-05T07:46:39.903Z,1011.25
2018-11-05T07:47:45.439Z,1011.30
2018-11-05T07:48:50.983Z,1011.26
2018-11-05T07:49:56.532Z,1011.27
2018-11-05T07:51:02.049Z,1011.25
2018-11-05T07:52:07.591Z,1011.18
2018-11-05T07:53:13.126Z,1011.13
2018-11-05T07:54:18.659Z,1011.18
2018-11-05T07:55:24.201Z,1011.23
2018-11-05T07:56:29.735Z,1011.23
2018-11-05T07:57:35.278Z,1011.18
2018-11-05T07:58:40.810Z,1011.15
2018-11-05T07:59:46.344Z,1011.09
2018-11-05T08:00:51.880Z,1011.05
2018-11-05T08:01:57.418Z,1010.99
2018-11-05T08:03:03.082Z,1011.00
2018-11-05T08:04:08.490Z,1011.02
2018-11-05T08:05:14.037Z,1011.03
2018-11-05T08:06:19.571Z,1010.98
2018-11-05T08:07:25.099Z,1011.01
2018-11-05T08:08:30.712Z,1011.02
2018-11-05T08:09:36.183Z,1011.05
2018-11-05T08:10:41.718Z,1011.01
2018-11-05T08:11:47.264Z,1011.00
2018-11-05T08:12:52.822Z,1010.98
2018-11-05T08:13:58.327Z,1010.97
2018-11-05T08:15:03.863Z,1010.92
2018-11-05T08:16:09.402Z,1010.92
2018-11-05T08:17:14.943Z,1010.87
2018-11-05T08:18:20.474Z,1010.88
2018-11-05T08:19:26.007Z,1010.89
2018-11-05T08:20:31.549Z,1010.90
2018-11-05T08:21:37.088Z,1010.90
2018-11-05T08:22:42.619Z,1010.90
2018-11-05T08:23:48.159Z,1010.94
2018-11-05T08:24:53.694Z,1010.90
2018-11-05T08:25:59.234Z,1010.92
2018-11-05T08:27:04.770Z,1010.93
2018-11-05T08:28:10.305Z,1010.91
2018-11-05T08:29:15.842Z,1010.95
2018-11-05T08:30:21.386Z,1010.98
2018-11-05T08:31:26.921Z,1010.95
2018-11-05T08:32:32.463Z,1010.98
2018-11-05T08:33:37.992Z,1010.95
2018-11-05T08:34:43.528Z,1010.93
2018-11-05T08:35:49.068Z,1010.92
2018-11-05T08:36:54.608Z,1010.92
2018-11-05T08:38:00.143Z,1010.91
2018-11-05T08:39:05.682Z,1010.87
2018-11-05T08:40:11.224Z,1010.85
2018-11-05T08:41:16.758Z,1010.85
2018-11-05T08:42:22.289Z,1010.89
2018-11-05T08:43:27.825Z,1010.84
2018-11-05T08:44:33.365Z,1010.85
2018-11-05T08:45:38.898Z,1010.81
2018-11-05T08:46:44.447Z,1010.79
2018-11-05T08:47:49.982Z,1010.78
2018-11-05T08:48:55.514Z,1010.71
2018-11-05T08:50:01.113Z,1010.68
2018-11-05T08:51:06.737Z,1010.65
2018-11-05T08:52:12.118Z,1010.66
2018-11-05T08:53:17.661Z,1010.64
2018-11-05T08:54:23.190Z,1010.61
2018-11-05T08:55:28.734Z,1010.68
2018-11-05T08:56:34.270Z,1010.62
2018-11-05T08:57:39.865Z,1010.66
2018-11-05T08:58:45.341Z,1010.64
2018-11-05T08:59:50.884Z,1010.69
2018-11-05T09:00:56.452Z,1010.65
2018-11-05T09:02:01.950Z,1010.65
2018-11-05T09:03:07.495Z,1010.62
2018-11-05T09:04:13.031Z,1010.57
2018-11-05T09:05:18.671Z,1010.55
2018-11-05T09:06:24.100Z,1010.59
2018-11-05T09:07:29.637Z,1010.60
2018-11-05T09:08:35.174Z,1010.64
2018-11-05T09:09:40.718Z,1010.64
2018-11-05T09:10:46.586Z,1010.64
2018-11-05T09:11:51.806Z,1010.63
2018-11-05T09:12:57.324Z,1010.58
2018-11-05T09:14:02.858Z,1010.55
2018-11-05T09:15:08.395Z,1010.54
2018-11-05T09:16:14.001Z,1010.52
2018-11-05T09:17:19.472Z,1010.54
2018-11-05T09:18:25.007Z,1010.53
2018-11-05T09:19:30.550Z,1010.49
2018-11-05T09:20:36.123Z,1010.52
2018-11-05T09:21:41.621Z,1010.51
2018-11-05T09:22:47.157Z,1010.48
2018-11-05T09:23:52.698Z,1010.47
2018-11-05T09:24:58.232Z,1010.49
2018-11-05T09:26:03.774Z,1010.52
2018-11-05T09:27:09.302Z,1010.52
2018-11-05T09:28:14.842Z,1010.52
2018-11-05T09:29:20.379Z,1010.51
2018-11-05T09:30:25.931Z,1010.48
2018-11-05T09:31:31.455Z,1010.50
2018-11-05T09:32:36.993Z,1010.48
2018-11-05T09:33:42.529Z,1010.47
2018-11-05T09:34:48.070Z,1010.47
2018-11-05T09:35:53.607Z,1010.45
2018-11-05T09:36:59.143Z,1010.46
2018-11-05T09:38:04.680Z,1010.45
2018-11-05T09:39:10.213Z,1010.43
2018-11-05T09:40:15.753Z,1010.45
2018-11-05T09:41:21.288Z,1010.42
2018-11-05T09:42:26.834Z,1010.44
2018-11-05T09:43:32.362Z,1010.47
2018-11-05T09:44:37.904Z,1010.46
2018-11-05T09:45:43.442Z,1010.51
2018-11-05T09:46:48.976Z,1010.53
2018-11-05T09:47:54.516Z,1010.61
2018-11-05T09:49:00.057Z,1010.64
2018-11-05T09:50:05.592Z,1010.62
2018-11-05T09:51:11.125Z,1010.63
2018-11-05T09:52:16.658Z,1010.60
2018-11-05T09:53:22.199Z,1010.63
2018-11-05T09:54:27.734Z,1010.64
2018-11-05T09:55:33.309Z,1010.59
2018-11-05T09:56:38.808Z,1010.54
2018-11-05T09:57:44.352Z,1010.52
2018-11-05T09:58:49.888Z,1010.50
2018-11-05T09:59:55.423Z,1010.52
2018-11-05T10:01:00.967Z,1010.50
2018-11-05T10:02:06.505Z,1010.47
2018-11-05T10:03:12.216Z,1010.47
2018-11-05T10:04:17.738Z,1010.50
2018-11-05T10:05:23.163Z,1010.47
2018-11-05T10:06:28.646Z,1010.49
2018-11-05T10:07:34.191Z,1010.47
2018-11-05T10:08:39.720Z,1010.50
2018-11-05T10:09:45.283Z,1010.48
2018-11-05T10:10:50.810Z,1010.51
2018-11-05T10:11:56.336Z,1010.50
2018-11-05T10:13:01.875Z,1010.48
2018-11-05T10:14:07.412Z,1010.51
2018-11-05T10:15:12.947Z,1010.45
2018-11-05T10:16:18.532Z,1010.43
2018-11-05T10:17:24.024Z,1010.42
2018-11-05T10:18:29.559Z,1010.42
2018-11-05T10:19:35.094Z,1010.42
2018-11-05T10:20:40.631Z,1010.42
2018-11-05T10:21:46.170Z,1010.39
2018-11-05T10:22:51.705Z,1010.40
2018-11-05T10:23:57.249Z,1010.38
2018-11-05T10:25:03.098Z,1010.45
2018-11-05T10:26:08.368Z,1010.46
2018-11-05T10:27:13.859Z,1010.46
2018-11-05T10:28:19.394Z,1010.42
2018-11-05T10:29:24.930Z,1010.41
2018-11-05T10:30:30.474Z,1010.38
2018-11-05T10:31:36.009Z,1010.39
2018-11-05T10:32:41.597Z,1010.35
2018-11-05T10:33:47.183Z,1010.33
2018-11-05T10:34:52.619Z,1010.35
2018-11-05T10:35:58.156Z,1010.36
2018-11-05T10:37:03.698Z,1010.36
2018-11-05T10:38:09.229Z,1010.29
2018-11-05T10:39:14.769Z,1010.29
2018-11-05T10:40:20.330Z,1010.33
2018-11-05T10:41:25.842Z,1010.33
2018-11-05T10:42:31.380Z,1010.24
2018-11-05T10:43:36.923Z,1010.26
2018-11-05T10:44:42.455Z,1010.20
2018-11-05T10:45:47.995Z,1010.17
2018-11-05T10:46:53.536Z,1010.19
2018-11-05T10:47:59.074Z,1010.26
2018-11-05T10:49:04.605Z,1010.20
2018-11-05T10:50:10.148Z,1010.22
2018-11-05T10:51:15.739Z,1010.20
2018-11-05T10:52:21.307Z,1010.20
2018-11-05T10:53:26.762Z,1010.18
2018-11-05T10:54:32.290Z,1010.24
2018-11-05T10:55:37.834Z,1010.13
2018-11-05T10:56:43.378Z,1010.14
2018-11-05T10:57:48.909Z,1010.11
2018-11-05T10:58:54.440Z,1010.10
2018-11-05T10:59:59.988Z,1010.09
2018-11-05T11:01:05.524Z,1010.08
2018-11-05T11:02:11.053Z,1010.08
2018-11-05T11:03:16.594Z,1010.07
2018-11-05T11:04:22.194Z,1010.05
2018-11-05T11:05:27.670Z,1010.04
2018-11-05T11:06:33.204Z,1010.03
2018-11-05T11:07:38.741Z,1009.97
2018-11-05T11:08:44.289Z,1009.94
2018-11-05T11:09:49.817Z,1009.89
2018-11-05T11:10:55.356Z,1009.92
2018-11-05T11:12:00.896Z,1009.93
2018-11-05T11:13:06.432Z,1009.93
2018-11-05T11:14:11.965Z,1009.90
2018-11-05T11:15:17.586Z,1009.84
2018-11-05T11:16:23.043Z,1009.75
2018-11-05T11:17:28.584Z,1009.75
2018-11-05T11:18:34.123Z,1009.71
2018-11-05T11:19:39.653Z,1009.70
2018-11-05T11:20:45.198Z,1009.68
2018-11-05T11:21:50.765Z,1009.71
2018-11-05T11:22:56.272Z,1009.75
2018-11-05T11:24:01.809Z,1009.77
2018-11-05T11:25:07.347Z,1009.75
2018-11-05T11:26:12.881Z,1009.80
2018-11-05T11:27:18.419Z,1009.82
2018-11-05T11:28:24.060Z,1009.83
2018-11-05T11:29:29.651Z,1009.72
2018-11-05T11:30:35.034Z,1009.71
2018-11-05T11:31:40.566Z,1009.71
2018-11-05T11:32:46.112Z,1009.71
2018-11-05T11:33:51.644Z,1009.72
2018-11-05T11:34:57.182Z,1009.75
2018-11-05T11:36:02.719Z,1009.78
2018-11-05T11:37:08.317Z,1009.79
2018-11-05T11:38:13.793Z,1009.84
2018-11-05T11:39:19.336Z,1009.78
2018-11-05T11:40:24.866Z,1009.82
2018-11-05T11:41:30.406Z,1009.78
2018-11-05T11:42:35.946Z,1009.77
2018-11-05T11:43:41.483Z,1009.80
2018-11-05T11:44:47.092Z,1009.74
2018-11-05T11:45:52.565Z,1009.70
2018-11-05T11:46:58.095Z,1009.72
2018-11-05T11:48:03.633Z,1009.68
2018-11-05T11:49:09.172Z,1009.68
2018-11-05T11:50:14.709Z,1009.71
2018-11-05T11:51:20.244Z,1009.68
2018-11-05T11:52:25.838Z,1009.68
2018-11-05T11:53:31.413Z,1009.63
2018-11-05T11:54:36.861Z,1009.57
2018-11-05T11:55:42.398Z,1009.58
2018-11-05T11:56:47.933Z,1009.60
2018-11-05T11:57:53.477Z,1009.55
2018-11-05T11:58:59.010Z,1009.52
2018-11-05T12:00:04.548Z,1009.48
2018-11-05T12:01:10.093Z,1009.50
2018-11-05T12:02:15.705Z,1009.56
2018-11-05T12:03:21.160Z,1009.52
2018-11-05T12:04:26.701Z,1009.51
2018-11-05T12:05:32.238Z,1009.48
2018-11-05T12:06:37.772Z,1009.49
2018-11-05T12:07:43.318Z,1009.45
2018-11-05T12:08:48.847Z,1009.39
2018-11-05T12:09:54.388Z,1009.45
2018-11-05T12:10:59.930Z,1009.37
2018-11-05T12:12:05.464Z,1009.35
2018-11-05T12:13:11.010Z,1009.32
2018-11-05T12:14:16.606Z,1009.30
2018-11-05T12:15:22.076Z,1009.30
2018-11-05T12:16:27.615Z,1009.26
2018-11-05T12:17:33.158Z,1009.27
2018-11-05T12:18:38.690Z,1009.23
2018-11-05T12:19:44.233Z,1009.24
2018-11-05T12:20:49.766Z,1009.25
2018-11-05T12:21:55.308Z,1009.25
2018-11-05T12:23:00.843Z,1009.24
2018-11-05T12:24:06.381Z,1009.23
2018-11-05T12:25:11.922Z,1009.22
2018-11-05T12:26:17.456Z,1009.18
2018-11-05T12:27:22.998Z,1009.16
2018-11-05T12:28:28.533Z,1009.11
2018-11-05T12:29:34.063Z,1009.11
2018-11-05T12:30:39.608Z,1009.08
2018-11-05T12:31:45.149Z,1009.11
2018-11-05T12:32:50.682Z,1009.15
2018-11-05T12:33:56.221Z,1009.17
2018-11-05T12:35:01.757Z,1009.21
2018-11-05T12:36:07.301Z,1009.17
2018-11-05T12:37:12.834Z,1009.16
2018-11-05T12:38:18.368Z,1009.17
2018-11-05T12:39:23.907Z,1009.14
2018-11-05T12:40:29.443Z,1009.09
2018-11-05T12:41:34.986Z,1009.10
2018-11-05T12:42:40.530Z,1009.07
2018-11-05T12:43:46.060Z,1009.03
2018-11-05T12:44:51.615Z,1009.00
2018-11-05T12:45:57.136Z,1009.01
2018-11-05T12:47:02.677Z,1009.04
2018-11-05T12:48:08.214Z,1009.03
2018-11-05T12:49:13.745Z,1009.04
2018-11-05T12:50:19.288Z,1009.01
2018-11-05T12:51:24.821Z,1009.01
2018-11-05T12:52:30.364Z,1009.00
2018-11-05T12:53:35.897Z,1009.03
2018-11-05T12:54:41.436Z,1009.02
2018-11-05T12:55:46.975Z,1008.89
2018-11-05T12:56:52.514Z,1008.91
2018-11-05T12:57:58.048Z,1008.90
2018-11-05T12:59:03.593Z,1008.86
2018-11-05T13:00:09.128Z,1008.88
2018-11-05T13:01:14.660Z,1008.84
2018-11-05T13:02:20.211Z,1008.80
2018-11-05T13:03:25.734Z,1008.82
2018-11-05T13:04:31.272Z,1008.85
2018-11-05T13:05:36.819Z,1008.80
2018-11-05T13:06:42.369Z,1008.82
2018-11-05T13:07:47.890Z,1008.80
2018-11-05T13:08:53.428Z,1008.79
2018-11-05T13:09:58.967Z,1008.80
2018-11-05T13:11:04.499Z,1008.75
2018-11-05T13:12:10.035Z,1008.72